Time;durP1;ratioP1;P1;durP2;ratioP2;P2;SDS_P1;SDS_P2;PMS_P1;PMS_P2;Temp;Humidity;BMP_temperature;BMP_pressure;BME280_temperature;BME280_humidity;BME280_pressure;Samples;Min_cycle;Max_cycle;Signal;HPM_P1;HPM_P2
2022/09/02 00:02:12;;;;;;;;;8.50;8.00;;;;;;;;5085571;27;50995;-62
2022/09/02 00:04:37;;;;;;;;;8.00;8.00;;;;;;;;5083713;27;50894;-62
2022/09/02 00:07:03;;;;;;;;;8.00;8.00;;;;;;;;5095348;27;52615;-62
2022/09/02 00:09:28;;;;;;;;;10.25;10.25;;;;;;;;5074862;27;51262;-62
2022/09/02 00:11:54;;;;;;;;;7.00;7.00;;;;;;;;5080048;27;51004;-64
2022/09/02 00:14:24;;;;;;;;;10.00;9.67;;;;;;;;5079874;27;52631;-61
2022/09/02 00:16:51;;;;;;;;;11.00;10.00;;;;;;;;5094686;27;50926;-62
2022/09/02 00:19:17;;;;;;;;;10.33;10.00;;;;;;;;5078960;27;50961;-61
2022/09/02 00:21:43;;;;;;;;;9.00;9.00;;;;;;;;5093710;27;51205;-62
2022/09/02 00:24:08;;;;;;;;;9.67;9.67;;;;;;;;5073175;27;51357;-62
2022/09/02 00:26:34;;;;;;;;;12.33;11.00;;;;;;;;5091074;27;54024;-62
2022/09/02 00:29:00;;;;;;;;;11.00;10.67;;;;;;;;5091485;27;51070;-61
2022/09/02 00:31:26;;;;;;;;;10.00;9.67;;;;;;;;5093778;27;51203;-63
2022/09/02 00:33:52;;;;;;;;;9.67;9.67;;;;;;;;5077945;27;51293;-65
2022/09/02 00:36:17;;;;;;;;;10.33;9.33;;;;;;;;5073698;27;51062;-63
2022/09/02 00:38:42;;;;;;;;;10.00;10.00;;;;;;;;5083086;27;52553;-63
2022/09/02 00:41:08;;;;;;;;;8.67;8.67;;;;;;;;5083936;27;51359;-61
2022/09/02 00:43:37;;;;;;;;;10.00;10.00;;;;;;;;5084972;27;51291;-61
2022/09/02 00:46:02;;;;;;;;;10.00;10.00;;;;;;;;5091994;27;52763;-61
2022/09/02 00:48:28;;;;;;;;;9.33;9.33;;;;;;;;5088932;27;51160;-62
2022/09/02 00:50:53;;;;;;;;;10.33;10.33;;;;;;;;5088762;27;51408;-62
2022/09/02 00:53:19;;;;;;;;;9.67;9.67;;;;;;;;5083910;27;52838;-67
2022/09/02 00:55:46;;;;;;;;;7.67;7.67;;;;;;;;5090539;27;51096;-64
2022/09/02 00:58:19;;;;;;;;;7.67;7.67;;;;;;;;5074248;27;51364;-62
2022/09/02 01:00:47;;;;;;;;;10.00;9.00;;;;;;;;5088404;27;51349;-62
2022/09/02 01:03:14;;;;;;;;;10.00;9.67;;;;;;;;5072822;27;51274;-63
2022/09/02 01:05:44;;;;;;;;;10.33;10.00;;;;;;;;5094263;27;51138;-62
2022/09/02 01:08:18;;;;;;;;;10.33;10.33;;;;;;;;5089408;27;50968;-64
2022/09/02 01:10:45;;;;;;;;;12.00;11.00;;;;;;;;5082912;27;51088;-62
2022/09/02 01:13:11;;;;;;;;;9.00;9.00;;;;;;;;5079667;27;51125;-63
2022/09/02 01:15:39;;;;;;;;;10.00;9.67;;;;;;;;5090675;27;51113;-62
2022/09/02 01:18:06;;;;;;;;;9.67;9.67;;;;;;;;5082948;27;51146;-62
2022/09/02 01:20:32;;;;;;;;;9.33;9.00;;;;;;;;5088606;27;51230;-62
2022/09/02 01:22:57;;;;;;;;;9.33;9.33;;;;;;;;5082351;27;51656;-62
2022/09/02 01:25:26;;;;;;;;;9.00;9.00;;;;;;;;5082991;27;51099;-63
2022/09/02 01:27:51;;;;;;;;;10.00;10.00;;;;;;;;5093810;27;51051;-62
2022/09/02 01:30:19;;;;;;;;;10.33;10.33;;;;;;;;5090496;27;51173;-63
2022/09/02 01:32:44;;;;;;;;;10.33;10.00;;;;;;;;5084650;27;51221;-62
2022/09/02 01:35:09;;;;;;;;;11.00;11.00;;;;;;;;5073449;27;52196;-62
2022/09/02 01:37:37;;;;;;;;;10.00;9.67;;;;;;;;5076468;27;50987;-62
2022/09/02 01:40:05;;;;;;;;;10.00;10.00;;;;;;;;5072677;27;51103;-62
2022/09/02 01:42:30;;;;;;;;;11.00;10.00;;;;;;;;5076332;27;51679;-62
2022/09/02 01:44:55;;;;;;;;;8.00;8.00;;;;;;;;5078827;27;52230;-62
2022/09/02 01:47:22;;;;;;;;;10.33;10.00;;;;;;;;5094317;27;50949;-62
2022/09/02 01:49:48;;;;;;;;;10.00;10.00;;;;;;;;5092097;27;51163;-62
2022/09/02 01:52:13;;;;;;;;;8.67;8.00;;;;;;;;5089152;27;50901;-61
2022/09/02 01:54:39;;;;;;;;;11.67;11.67;;;;;;;;5076047;27;51174;-61
2022/09/02 01:57:04;;;;;;;;;10.00;10.00;;;;;;;;5078607;27;51769;-62
2022/09/02 01:59:29;;;;;;;;;9.67;9.67;;;;;;;;5076599;27;51052;-62
2022/09/02 02:01:54;;;;;;;;;12.00;11.75;;;;;;;;5074597;27;51073;-64
2022/09/02 02:04:21;;;;;;;;;9.75;9.75;;;;;;;;5091586;27;51343;-62
2022/09/02 02:06:47;;;;;;;;;9.33;9.33;;;;;;;;5087373;27;51054;-61
2022/09/02 02:09:12;;;;;;;;;9.67;9.00;;;;;;;;5084972;27;51385;-62
2022/09/02 02:11:38;;;;;;;;;10.50;9.75;;;;;;;;5074125;27;51167;-61
2022/09/02 02:14:03;;;;;;;;;10.00;9.00;;;;;;;;5073386;27;51158;-61
2022/09/02 02:16:29;;;;;;;;;11.00;10.00;;;;;;;;5076989;27;51197;-62
2022/09/02 02:18:54;;;;;;;;;9.33;9.33;;;;;;;;5073069;27;51042;-62
2022/09/02 02:21:19;;;;;;;;;10.67;10.33;;;;;;;;5072540;27;50985;-62
2022/09/02 02:23:44;;;;;;;;;12.67;11.67;;;;;;;;5073869;27;51178;-61
2022/09/02 02:26:09;;;;;;;;;11.00;11.00;;;;;;;;5071887;28;51177;-61
2022/09/02 02:28:35;;;;;;;;;10.00;9.33;;;;;;;;5086098;27;51303;-61
2022/09/02 02:31:00;;;;;;;;;12.33;12.33;;;;;;;;5079442;27;51717;-61
2022/09/02 02:33:27;;;;;;;;;10.00;9.67;;;;;;;;5087780;27;52426;-61
2022/09/02 02:35:52;;;;;;;;;10.67;10.00;;;;;;;;5092611;27;51076;-61
2022/09/02 02:38:18;;;;;;;;;9.50;9.00;;;;;;;;5093382;27;51178;-61
2022/09/02 02:40:44;;;;;;;;;8.67;8.67;;;;;;;;5076177;27;51341;-61
2022/09/02 02:43:09;;;;;;;;;11.67;11.33;;;;;;;;5082928;27;50961;-62
2022/09/02 02:45:34;;;;;;;;;12.67;11.67;;;;;;;;5092747;27;51123;-62
2022/09/02 02:47:59;;;;;;;;;12.00;11.00;;;;;;;;5081948;27;50952;-62
2022/09/02 02:50:25;;;;;;;;;9.00;9.00;;;;;;;;5071378;27;51532;-62
2022/09/02 02:52:52;;;;;;;;;10.33;10.33;;;;;;;;5080537;27;51126;-61
2022/09/02 02:55:18;;;;;;;;;11.00;10.00;;;;;;;;5071717;27;51227;-62
2022/09/02 02:57:44;;;;;;;;;9.67;9.67;;;;;;;;5079818;27;51207;-63
2022/09/02 03:00:14;;;;;;;;;9.33;9.33;;;;;;;;5085713;27;51223;-63
2022/09/02 03:02:39;;;;;;;;;10.00;10.00;;;;;;;;5076925;27;53846;-62
2022/09/02 03:05:06;;;;;;;;;9.00;8.67;;;;;;;;5072486;27;50975;-62
2022/09/02 03:07:31;;;;;;;;;12.00;11.00;;;;;;;;5083471;27;51045;-62
2022/09/02 03:09:56;;;;;;;;;13.00;11.75;;;;;;;;5080065;27;51101;-62
2022/09/02 03:12:22;;;;;;;;;19.25;17.50;;;;;;;;5075026;27;51133;-61
2022/09/02 03:14:48;;;;;;;;;19.75;18.25;;;;;;;;5086056;27;50937;-61
2022/09/02 03:17:13;;;;;;;;;16.75;16.75;;;;;;;;5077540;27;51200;-62
2022/09/02 03:19:38;;;;;;;;;19.25;19.25;;;;;;;;5071045;27;51414;-61
2022/09/02 03:22:04;;;;;;;;;34.25;30.00;;;;;;;;5077439;27;51078;-61
2022/09/02 03:24:29;;;;;;;;;32.25;30.00;;;;;;;;5075423;27;51080;-61
2022/09/02 03:26:54;;;;;;;;;33.50;29.25;;;;;;;;5080946;27;51487;-62
2022/09/02 03:29:19;;;;;;;;;28.25;26.25;;;;;;;;5089438;27;51132;-61
2022/09/02 03:31:45;;;;;;;;;29.75;25.75;;;;;;;;5081144;27;52034;-61
2022/09/02 03:34:10;;;;;;;;;27.50;24.50;;;;;;;;5090272;27;51201;-62
2022/09/02 03:36:42;;;;;;;;;14.75;14.25;;;;;;;;5093123;27;51333;-62
2022/09/02 03:39:08;;;;;;;;;18.75;18.75;;;;;;;;5094078;27;50987;-61
2022/09/02 03:41:34;;;;;;;;;15.25;15.25;;;;;;;;5089271;27;52256;-61
2022/09/02 03:44:00;;;;;;;;;17.50;17.00;;;;;;;;5079061;27;51236;-62
2022/09/02 03:46:26;;;;;;;;;16.00;16.00;;;;;;;;5073308;27;52337;-61
2022/09/02 03:48:51;;;;;;;;;18.50;16.50;;;;;;;;5085886;27;51059;-61
2022/09/02 03:51:18;;;;;;;;;19.75;19.50;;;;;;;;5076063;27;51270;-62
2022/09/02 03:53:43;;;;;;;;;18.50;18.50;;;;;;;;5087665;27;51225;-61
2022/09/02 03:56:13;;;;;;;;;20.00;19.00;;;;;;;;5076890;27;51127;-62
2022/09/02 03:58:38;;;;;;;;;22.75;21.25;;;;;;;;5093724;27;51062;-61
2022/09/02 04:01:04;;;;;;;;;19.25;17.75;;;;;;;;5080063;27;53750;-61
2022/09/02 04:03:29;;;;;;;;;19.25;19.25;;;;;;;;5074679;27;52797;-61
2022/09/02 04:05:55;;;;;;;;;18.50;17.50;;;;;;;;5071850;27;51332;-62
2022/09/02 04:08:20;;;;;;;;;17.75;17.50;;;;;;;;5081564;27;51339;-63
2022/09/02 04:10:45;;;;;;;;;16.00;16.00;;;;;;;;5075506;27;52009;-61
2022/09/02 04:13:11;;;;;;;;;17.00;17.00;;;;;;;;5081990;27;51185;-61
2022/09/02 04:15:43;;;;;;;;;18.75;17.75;;;;;;;;5087873;27;51354;-61
2022/09/02 04:18:08;;;;;;;;;15.50;15.50;;;;;;;;5080686;27;51118;-62
2022/09/02 04:20:33;;;;;;;;;14.75;14.00;;;;;;;;5080207;27;51171;-61
2022/09/02 04:22:59;;;;;;;;;14.00;13.25;;;;;;;;5085048;27;51175;-61
2022/09/02 04:25:24;;;;;;;;;13.50;13.50;;;;;;;;5084332;27;51959;-62
2022/09/02 04:27:49;;;;;;;;;13.25;13.25;;;;;;;;5075938;27;51056;-61
2022/09/02 04:30:15;;;;;;;;;13.00;12.00;;;;;;;;5074842;28;51969;-62
2022/09/02 04:32:41;;;;;;;;;13.50;13.50;;;;;;;;5074101;27;51138;-61
2022/09/02 04:35:07;;;;;;;;;13.25;13.00;;;;;;;;5072313;27;51186;-63
2022/09/02 04:37:32;;;;;;;;;12.25;12.25;;;;;;;;5087346;27;51367;-61
2022/09/02 04:39:57;;;;;;;;;11.75;11.75;;;;;;;;5093848;27;52197;-62
2022/09/02 04:42:24;;;;;;;;;12.00;11.75;;;;;;;;5089354;27;51032;-62
2022/09/02 04:44:49;;;;;;;;;15.00;13.25;;;;;;;;5088698;27;51098;-61
2022/09/02 04:47:15;;;;;;;;;16.50;16.50;;;;;;;;5086944;27;51332;-62
2022/09/02 04:49:41;;;;;;;;;16.00;14.25;;;;;;;;5078285;27;51767;-61
2022/09/02 04:52:07;;;;;;;;;12.25;12.00;;;;;;;;5093780;27;50989;-61
2022/09/02 04:54:32;;;;;;;;;14.00;12.00;;;;;;;;5081866;27;51001;-61
2022/09/02 04:56:58;;;;;;;;;12.25;12.25;;;;;;;;5082321;27;51179;-62
2022/09/02 04:59:23;;;;;;;;;13.00;12.33;;;;;;;;5074586;27;52168;-62
2022/09/02 05:01:49;;;;;;;;;15.00;15.00;;;;;;;;5084232;27;51157;-62
2022/09/02 05:04:14;;;;;;;;;11.25;11.25;;;;;;;;5077343;27;52951;-62
2022/09/02 05:06:39;;;;;;;;;15.75;14.00;;;;;;;;5077453;27;51273;-61
2022/09/02 05:09:04;;;;;;;;;17.50;17.00;;;;;;;;5080121;27;51701;-62
2022/09/02 05:11:32;;;;;;;;;15.75;15.75;;;;;;;;5086813;27;52178;-62
2022/09/02 05:13:59;;;;;;;;;15.25;15.00;;;;;;;;5086454;27;51066;-61
2022/09/02 05:16:25;;;;;;;;;15.00;15.00;;;;;;;;5084416;27;51120;-61
2022/09/02 05:18:52;;;;;;;;;15.75;15.25;;;;;;;;5084141;27;52215;-62
2022/09/02 05:21:18;;;;;;;;;15.25;15.25;;;;;;;;5085964;27;51170;-61
2022/09/02 05:23:43;;;;;;;;;14.75;14.75;;;;;;;;5086495;27;51108;-61
2022/09/02 05:26:10;;;;;;;;;12.25;12.25;;;;;;;;5085249;27;51198;-62
2022/09/02 05:28:35;;;;;;;;;16.25;15.00;;;;;;;;5080657;27;52942;-62
2022/09/02 05:31:05;;;;;;;;;19.75;17.75;;;;;;;;5086296;27;51099;-62
2022/09/02 05:33:31;;;;;;;;;16.25;16.25;;;;;;;;5090258;27;50929;-61
2022/09/02 05:35:56;;;;;;;;;14.25;14.25;;;;;;;;5085321;27;51484;-62
2022/09/02 05:38:21;;;;;;;;;14.50;14.25;;;;;;;;5088749;27;51294;-61
2022/09/02 05:40:46;;;;;;;;;14.00;14.00;;;;;;;;5085447;27;51208;-62
2022/09/02 05:43:11;;;;;;;;;17.00;17.00;;;;;;;;5084136;27;51137;-61
2022/09/02 05:45:38;;;;;;;;;19.25;18.25;;;;;;;;5086070;27;50937;-62
2022/09/02 05:49:04;;;;;;;;;19.50;19.50;;;;;;;;5086559;27;51154;-62
2022/09/02 05:50:48;;;;;;;;;17.25;15.75;;;;;;;;5090192;27;51049;-63
2022/09/02 05:53:13;;;;;;;;;15.75;15.50;;;;;;;;5085942;27;52028;-63
2022/09/02 05:55:38;;;;;;;;;19.25;18.25;;;;;;;;5086541;27;51066;-63
2022/09/02 05:58:04;;;;;;;;;18.50;18.00;;;;;;;;5086223;27;52921;-61
2022/09/02 06:00:29;;;;;;;;;20.50;19.00;;;;;;;;5087185;27;51068;-62
2022/09/02 06:02:54;;;;;;;;;16.25;16.25;;;;;;;;5090158;27;51246;-62
2022/09/02 06:05:20;;;;;;;;;16.00;15.75;;;;;;;;5085446;27;51625;-62
2022/09/02 06:07:45;;;;;;;;;14.50;14.25;;;;;;;;5085178;27;51188;-62
2022/09/02 06:10:10;;;;;;;;;15.50;15.50;;;;;;;;5090416;27;51132;-62
2022/09/02 06:12:35;;;;;;;;;16.00;14.00;;;;;;;;5087840;27;50916;-62
2022/09/02 06:15:01;;;;;;;;;15.00;14.75;;;;;;;;5086906;27;52085;-61
2022/09/02 06:17:27;;;;;;;;;17.50;16.75;;;;;;;;5078538;27;52525;-62
2022/09/02 06:19:52;;;;;;;;;16.50;16.25;;;;;;;;5085150;27;51624;-61
2022/09/02 06:22:17;;;;;;;;;17.75;16.75;;;;;;;;5088130;27;51047;-62
2022/09/02 06:24:42;;;;;;;;;16.00;16.00;;;;;;;;5090723;27;51219;-63
2022/09/02 06:27:08;;;;;;;;;16.00;15.75;;;;;;;;5075607;27;51797;-63
2022/09/02 06:29:33;;;;;;;;;16.75;16.50;;;;;;;;5072592;27;50858;-62
2022/09/02 06:31:58;;;;;;;;;17.25;16.75;;;;;;;;5071993;27;50873;-64
2022/09/02 06:34:25;;;;;;;;;15.25;15.00;;;;;;;;5072442;28;51252;-63
2022/09/02 06:36:51;;;;;;;;;17.50;16.50;;;;;;;;5087551;27;51713;-62
2022/09/02 06:39:18;;;;;;;;;18.00;17.25;;;;;;;;5092682;27;50906;-63
2022/09/02 06:41:47;;;;;;;;;18.50;18.25;;;;;;;;5086989;27;51387;-62
2022/09/02 06:44:14;;;;;;;;;17.00;17.00;;;;;;;;5086312;27;51288;-63
2022/09/02 06:46:45;;;;;;;;;14.25;14.25;;;;;;;;5071635;27;51528;-64
2022/09/02 06:49:10;;;;;;;;;17.50;17.50;;;;;;;;5072048;28;51001;-62
2022/09/02 06:51:37;;;;;;;;;16.75;16.50;;;;;;;;5070734;28;51080;-62
2022/09/02 06:54:04;;;;;;;;;15.50;15.50;;;;;;;;5077389;27;51122;-63
2022/09/02 06:56:29;;;;;;;;;13.50;13.50;;;;;;;;5072072;28;51996;-63
2022/09/02 06:58:55;;;;;;;;;15.75;15.25;;;;;;;;5072030;28;51089;-63
2022/09/02 07:01:27;;;;;;;;;15.25;15.25;;;;;;;;5076500;27;50966;-63
2022/09/02 07:06:41;;;;;;;;;15.50;15.25;;;;;;;;5071841;28;51021;-65
2022/09/02 07:09:09;;;;;;;;;13.33;12.33;;;;;;;;5071409;27;50990;-63
2022/09/02 07:11:35;;;;;;;;;14.00;14.00;;;;;;;;5072125;27;50972;-63
2022/09/02 07:14:00;;;;;;;;;15.00;15.00;;;;;;;;5072071;27;51016;-64
2022/09/02 07:16:29;;;;;;;;;12.50;12.25;;;;;;;;5074483;27;51379;-63
2022/09/02 07:18:56;;;;;;;;;16.00;14.00;;;;;;;;5071844;28;50904;-63
2022/09/02 07:21:21;;;;;;;;;15.00;13.67;;;;;;;;5072085;27;50964;-65
2022/09/02 07:23:46;;;;;;;;;15.50;15.00;;;;;;;;5072110;27;51180;-64
2022/09/02 07:26:13;;;;;;;;;14.33;14.00;;;;;;;;5072235;27;52171;-64
2022/09/02 07:28:38;;;;;;;;;14.33;13.67;;;;;;;;5090790;27;51100;-64
2022/09/02 07:31:06;;;;;;;;;11.33;10.67;;;;;;;;5092016;27;51477;-64
2022/09/02 07:33:32;;;;;;;;;13.25;12.25;;;;;;;;5092535;27;51067;-64
2022/09/02 07:35:57;;;;;;;;;12.33;12.00;;;;;;;;5091843;27;51720;-63
2022/09/02 07:38:22;;;;;;;;;12.67;12.67;;;;;;;;5092051;27;50949;-63
2022/09/02 07:40:49;;;;;;;;;14.00;14.00;;;;;;;;5092030;27;51559;-63
2022/09/02 07:43:14;;;;;;;;;14.00;12.33;;;;;;;;5092432;27;51115;-64
2022/09/02 07:45:42;;;;;;;;;16.75;16.25;;;;;;;;5071300;27;51611;-64
2022/09/02 07:48:07;;;;;;;;;15.25;13.00;;;;;;;;5071319;27;51004;-64
2022/09/02 07:50:33;;;;;;;;;13.67;13.67;;;;;;;;5071259;27;51115;-63
2022/09/02 07:52:58;;;;;;;;;12.33;12.00;;;;;;;;5078812;27;51189;-64
2022/09/02 07:55:24;;;;;;;;;10.00;10.00;;;;;;;;5071496;27;51962;-64
2022/09/02 07:57:50;;;;;;;;;15.67;13.67;;;;;;;;5071242;28;51161;-64
2022/09/02 08:00:16;;;;;;;;;8.00;7.75;;;;;;;;5087962;27;51111;-64
2022/09/02 08:02:42;;;;;;;;;18.25;18.25;;;;;;;;5080956;27;51069;-63
2022/09/02 08:05:08;;;;;;;;;12.67;11.00;;;;;;;;5069443;28;52811;-64
2022/09/02 08:07:33;;;;;;;;;13.33;12.67;;;;;;;;5070150;28;51025;-63
2022/09/02 08:09:59;;;;;;;;;14.00;13.25;;;;;;;;5072475;27;50861;-63
2022/09/02 08:12:25;;;;;;;;;10.33;10.00;;;;;;;;5075501;27;50905;-63
2022/09/02 08:14:50;;;;;;;;;10.33;10.33;;;;;;;;5074321;27;51768;-64
2022/09/02 08:17:16;;;;;;;;;14.00;13.50;;;;;;;;5085254;27;51160;-64
2022/09/02 08:19:41;;;;;;;;;15.50;14.75;;;;;;;;5095025;27;51355;-63
2022/09/02 08:22:06;;;;;;;;;14.50;12.50;;;;;;;;5094924;27;51107;-63
2022/09/02 08:24:32;;;;;;;;;12.00;12.00;;;;;;;;5094950;27;52926;-65
2022/09/02 08:26:59;;;;;;;;;11.25;10.75;;;;;;;;5095100;27;50985;-64
2022/09/02 08:29:24;;;;;;;;;8.33;7.33;;;;;;;;5095387;27;51071;-64
2022/09/02 08:31:49;;;;;;;;;12.50;12.25;;;;;;;;5088299;27;51094;-63
2022/09/02 08:34:15;;;;;;;;;18.75;17.75;;;;;;;;5074091;28;52383;-63
2022/09/02 08:36:42;;;;;;;;;12.67;11.33;;;;;;;;5074623;27;51095;-65
2022/09/02 08:39:07;;;;;;;;;12.67;12.67;;;;;;;;5074456;27;51091;-63
2022/09/02 08:41:41;;;;;;;;;11.75;11.00;;;;;;;;5087381;27;51118;-64
2022/09/02 08:44:06;;;;;;;;;13.67;12.67;;;;;;;;5076785;27;53492;-63
2022/09/02 08:46:32;;;;;;;;;12.33;11.33;;;;;;;;5074602;27;51233;-64
2022/09/02 08:49:01;;;;;;;;;14.00;14.00;;;;;;;;5074269;27;51324;-64
2022/09/02 08:51:26;;;;;;;;;12.50;12.00;;;;;;;;5074570;28;51242;-64
2022/09/02 08:53:58;;;;;;;;;12.25;12.25;;;;;;;;5084869;27;51473;-63
2022/09/02 08:56:25;;;;;;;;;14.25;14.25;;;;;;;;5072681;28;51065;-64
2022/09/02 08:59:01;;;;;;;;;17.75;15.25;;;;;;;;5074034;27;50912;-63
2022/09/02 09:01:39;;;;;;;;;14.25;13.50;;;;;;;;5081052;27;51210;-63
2022/09/02 09:04:16;;;;;;;;;19.75;18.50;;;;;;;;5073555;27;51859;-64
2022/09/02 09:07:00;;;;;;;;;18.50;18.25;;;;;;;;5087664;27;51204;-63
2022/09/02 09:09:36;;;;;;;;;18.50;18.50;;;;;;;;5094832;27;50897;-63
2022/09/02 09:12:21;;;;;;;;;19.00;19.00;;;;;;;;5094773;27;51126;-64
2022/09/02 09:14:46;;;;;;;;;15.75;15.75;;;;;;;;5089246;27;52213;-64
2022/09/02 09:17:22;;;;;;;;;19.25;18.25;;;;;;;;5082147;27;51062;-64
2022/09/02 09:19:50;;;;;;;;;18.75;18.25;;;;;;;;5073634;28;51061;-64
2022/09/02 09:22:20;;;;;;;;;17.75;16.75;;;;;;;;5074168;27;51184;-64
2022/09/02 09:24:47;;;;;;;;;17.75;17.75;;;;;;;;5073536;28;51221;-63
2022/09/02 09:27:17;;;;;;;;;22.50;19.50;;;;;;;;5073498;28;51105;-64
2022/09/02 09:29:43;;;;;;;;;17.50;16.50;;;;;;;;5073639;27;51060;-63
2022/09/02 09:32:35;;;;;;;;;19.50;19.00;;;;;;;;5073606;27;51070;-64
2022/09/02 09:35:01;;;;;;;;;16.75;16.00;;;;;;;;5073460;27;51878;-63
2022/09/02 09:37:26;;;;;;;;;17.00;17.00;;;;;;;;5073200;27;51030;-64
2022/09/02 09:39:52;;;;;;;;;16.75;16.50;;;;;;;;5073423;27;53084;-64
2022/09/02 09:42:28;;;;;;;;;20.75;20.50;;;;;;;;5073208;27;51207;-65
2022/09/02 09:44:53;;;;;;;;;15.00;15.00;;;;;;;;5073365;27;52365;-65
2022/09/02 09:47:21;;;;;;;;;17.25;17.25;;;;;;;;5073197;27;51151;-65
2022/09/02 09:49:51;;;;;;;;;14.00;13.75;;;;;;;;5073545;27;51089;-63
2022/09/02 09:52:23;;;;;;;;;19.75;18.50;;;;;;;;5073637;27;51205;-64
2022/09/02 09:55:04;;;;;;;;;16.75;16.00;;;;;;;;5072753;28;51818;-65
2022/09/02 09:57:30;;;;;;;;;19.50;19.00;;;;;;;;5081332;27;51126;-64
2022/09/02 09:59:55;;;;;;;;;18.00;17.50;;;;;;;;5090103;27;51670;-64
2022/09/02 10:02:24;;;;;;;;;18.75;18.75;;;;;;;;5082544;27;51163;-62
2022/09/02 10:05:14;;;;;;;;;19.00;18.75;;;;;;;;5072145;28;51078;-64
2022/09/02 10:07:41;;;;;;;;;17.25;17.00;;;;;;;;5072072;27;51122;-64
2022/09/02 10:10:15;;;;;;;;;17.50;16.75;;;;;;;;5078986;27;51166;-64
2022/09/02 10:12:41;;;;;;;;;17.00;16.50;;;;;;;;5078194;27;51298;-65
2022/09/02 10:15:08;;;;;;;;;15.75;15.50;;;;;;;;5072187;27;51093;-65
2022/09/02 10:17:33;;;;;;;;;20.50;19.50;;;;;;;;5072418;27;51230;-65
2022/09/02 10:20:11;;;;;;;;;18.00;16.25;;;;;;;;5071561;27;51101;-64
2022/09/02 10:22:36;;;;;;;;;19.25;19.25;;;;;;;;5072842;27;50870;-64
2022/09/02 10:25:18;;;;;;;;;16.25;15.50;;;;;;;;5072418;27;51850;-65
2022/09/02 10:27:54;;;;;;;;;19.00;17.25;;;;;;;;5072560;27;50977;-64
2022/09/02 10:30:20;;;;;;;;;16.25;16.00;;;;;;;;5071176;28;50926;-64
2022/09/02 10:33:06;;;;;;;;;15.67;15.33;;;;;;;;5071411;27;51377;-64
2022/09/02 10:35:34;;;;;;;;;18.25;18.25;;;;;;;;5071809;28;51130;-64
2022/09/02 10:38:05;;;;;;;;;15.67;15.33;;;;;;;;5072536;27;51086;-64
2022/09/02 10:40:53;;;;;;;;;18.00;17.00;;;;;;;;5078678;27;50955;-64
2022/09/02 10:43:25;;;;;;;;;17.00;14.33;;;;;;;;5089840;27;51080;-63
2022/09/02 10:45:56;;;;;;;;;18.50;18.00;;;;;;;;5072165;27;51966;-65
2022/09/02 10:48:31;;;;;;;;;18.25;17.25;;;;;;;;5075888;27;51146;-64
2022/09/02 10:50:59;;;;;;;;;15.75;15.75;;;;;;;;5093071;27;51075;-65
2022/09/02 10:53:31;;;;;;;;;19.25;18.25;;;;;;;;5086083;27;51092;-65
2022/09/02 10:56:00;;;;;;;;;17.75;17.25;;;;;;;;5072197;27;51995;-65
2022/09/02 10:58:51;;;;;;;;;25.50;21.75;;;;;;;;5074922;27;51006;-66
2022/09/02 11:01:19;;;;;;;;;20.25;20.25;;;;;;;;5080448;27;51181;-66
2022/09/02 11:03:45;;;;;;;;;23.00;22.00;;;;;;;;5070185;28;51179;-66
2022/09/02 11:06:13;;;;;;;;;18.50;17.00;;;;;;;;5071145;27;51737;-65
2022/09/02 11:08:52;;;;;;;;;19.25;19.00;;;;;;;;5072117;27;51056;-65
2022/09/02 11:11:44;;;;;;;;;19.25;19.25;;;;;;;;5070951;28;51085;-65
2022/09/02 11:14:22;;;;;;;;;20.75;19.50;;;;;;;;5069379;27;51187;-66
2022/09/02 11:16:51;;;;;;;;;20.25;18.75;;;;;;;;5072376;27;52025;-64
2022/09/02 11:19:16;;;;;;;;;20.00;20.00;;;;;;;;5071424;28;50840;-65
2022/09/02 11:21:49;;;;;;;;;22.25;21.75;;;;;;;;5075436;27;51123;-66
2022/09/02 11:24:17;;;;;;;;;18.33;18.33;;;;;;;;5092937;27;50853;-66
2022/09/02 11:26:49;;;;;;;;;26.25;26.00;;;;;;;;5092183;27;51139;-66
2022/09/02 11:29:40;;;;;;;;;20.75;20.00;;;;;;;;5091997;27;50952;-66
2022/09/02 11:32:12;;;;;;;;;18.67;18.67;;;;;;;;5083433;27;51392;-65
2022/09/02 11:34:46;;;;;;;;;21.50;20.00;;;;;;;;5092350;27;50957;-65
2022/09/02 11:37:23;;;;;;;;;23.50;22.75;;;;;;;;5090813;27;52400;-66
2022/09/02 11:39:58;;;;;;;;;19.50;19.50;;;;;;;;5090329;27;51366;-65
2022/09/02 11:42:42;;;;;;;;;23.25;23.00;;;;;;;;5084595;27;51168;-65
2022/09/02 11:45:25;;;;;;;;;22.25;20.50;;;;;;;;5091237;27;51302;-68
2022/09/02 11:47:53;;;;;;;;;22.00;22.00;;;;;;;;5074779;27;51776;-64
2022/09/02 11:50:25;;;;;;;;;21.50;21.00;;;;;;;;5074630;27;51054;-65
2022/09/02 11:52:56;;;;;;;;;20.25;20.25;;;;;;;;5082752;27;51082;-64
2022/09/02 11:55:24;;;;;;;;;24.00;22.75;;;;;;;;5095398;27;51051;-64
2022/09/02 11:57:56;;;;;;;;;22.50;21.25;;;;;;;;5085544;27;51094;-63
2022/09/02 12:00:26;;;;;;;;;23.25;23.25;;;;;;;;5077105;27;51084;-64
2022/09/02 12:02:59;;;;;;;;;22.75;20.75;;;;;;;;5079380;27;50905;-64
2022/09/02 12:05:30;;;;;;;;;21.25;20.25;;;;;;;;5074581;28;50862;-63
2022/09/02 12:07:55;;;;;;;;;21.25;20.75;;;;;;;;5073029;28;53166;-64
2022/09/02 12:10:40;;;;;;;;;18.25;17.50;;;;;;;;5078240;27;51151;-65
2022/09/02 12:13:06;;;;;;;;;21.75;20.00;;;;;;;;5095397;27;51209;-65
2022/09/02 12:15:34;;;;;;;;;21.50;19.25;;;;;;;;5093755;27;51313;-64
2022/09/02 12:18:08;;;;;;;;;21.00;18.25;;;;;;;;5080624;27;52377;-63
2022/09/02 12:20:37;;;;;;;;;18.00;18.00;;;;;;;;5092892;27;51079;-64
2022/09/02 12:23:03;;;;;;;;;16.00;16.00;;;;;;;;5093844;27;51202;-64
2022/09/02 12:25:37;;;;;;;;;18.00;18.00;;;;;;;;5093020;27;51374;-64
2022/09/02 12:28:22;;;;;;;;;17.00;15.50;;;;;;;;5074144;28;52355;-64
2022/09/02 12:30:54;;;;;;;;;15.50;14.50;;;;;;;;5074350;27;51013;-64
2022/09/02 12:33:47;;;;;;;;;22.25;21.25;;;;;;;;5074289;27;51100;-65
2022/09/02 12:36:31;;;;;;;;;20.00;19.75;;;;;;;;5074190;28;51120;-64
2022/09/02 12:39:17;;;;;;;;;22.50;21.75;;;;;;;;5073867;27;51225;-65
2022/09/02 12:41:46;;;;;;;;;22.50;22.25;;;;;;;;5073955;28;51133;-65
2022/09/02 12:44:30;;;;;;;;;25.25;21.25;;;;;;;;5097047;27;51120;-64
2022/09/02 12:47:04;;;;;;;;;23.00;23.00;;;;;;;;5094654;27;51884;-65
2022/09/02 12:49:39;;;;;;;;;18.50;18.25;;;;;;;;5094140;27;50923;-64
2022/09/02 12:52:08;;;;;;;;;16.50;15.75;;;;;;;;5092996;27;50966;-63
2022/09/02 12:54:42;;;;;;;;;18.50;18.00;;;;;;;;5079039;27;50981;-64
2022/09/02 12:57:08;;;;;;;;;16.00;16.00;;;;;;;;5073643;27;50987;-65
2022/09/02 12:59:36;;;;;;;;;16.25;15.75;;;;;;;;5073684;27;51056;-64
2022/09/02 13:02:14;;;;;;;;;14.67;14.00;;;;;;;;5076071;27;51003;-64
2022/09/02 13:04:53;;;;;;;;;19.00;18.25;;;;;;;;5073412;28;50957;-64
2022/09/02 13:07:30;;;;;;;;;15.75;15.00;;;;;;;;5073795;27;51043;-65
2022/09/02 13:09:58;;;;;;;;;18.00;17.00;;;;;;;;5073693;27;52011;-64
2022/09/02 13:12:32;;;;;;;;;19.50;19.25;;;;;;;;5073544;27;51160;-64
2022/09/02 13:15:01;;;;;;;;;20.25;19.00;;;;;;;;5074063;27;51123;-65
2022/09/02 13:17:46;;;;;;;;;18.25;16.75;;;;;;;;5084983;27;50842;-65
2022/09/02 13:20:22;;;;;;;;;18.33;17.67;;;;;;;;5093126;27;50991;-65
2022/09/02 13:22:53;;;;;;;;;23.50;19.25;;;;;;;;5094149;27;51141;-64
2022/09/02 13:25:37;;;;;;;;;22.25;21.50;;;;;;;;5094305;27;51014;-64
2022/09/02 13:28:05;;;;;;;;;21.75;21.75;;;;;;;;5094099;27;51945;-63
2022/09/02 13:30:40;;;;;;;;;24.25;23.75;;;;;;;;5093738;27;51057;-63
2022/09/02 13:33:07;;;;;;;;;23.00;22.25;;;;;;;;5093426;27;50949;-66
2022/09/02 13:35:35;;;;;;;;;22.50;22.50;;;;;;;;5078078;27;51208;-63
2022/09/02 13:38:00;;;;;;;;;21.25;21.25;;;;;;;;5073866;27;51295;-63
2022/09/02 13:40:27;;;;;;;;;17.00;17.00;;;;;;;;5073413;27;51816;-63
2022/09/02 13:42:54;;;;;;;;;16.00;15.33;;;;;;;;5086047;27;50950;-63
2022/09/02 13:45:26;;;;;;;;;18.33;18.33;;;;;;;;5084186;27;51105;-64
2022/09/02 13:47:56;;;;;;;;;14.00;14.00;;;;;;;;5072892;28;51238;-64
2022/09/02 13:50:28;;;;;;;;;14.33;14.00;;;;;;;;5072623;27;52119;-64
2022/09/02 13:52:58;;;;;;;;;17.33;15.67;;;;;;;;5074718;27;50922;-64
2022/09/02 13:55:24;;;;;;;;;15.33;14.67;;;;;;;;5072659;27;50970;-64
2022/09/02 13:57:54;;;;;;;;;11.00;11.00;;;;;;;;5073098;27;51054;-63
2022/09/02 14:00:46;;;;;;;;;14.33;13.67;;;;;;;;5073585;27;51801;-65
2022/09/02 14:03:13;;;;;;;;;12.67;12.33;;;;;;;;5071830;27;51138;-64
2022/09/02 14:05:40;;;;;;;;;12.67;12.67;;;;;;;;5072833;27;50965;-64
2022/09/02 14:08:06;;;;;;;;;13.33;13.00;;;;;;;;5079211;27;50904;-63
2022/09/02 14:10:33;;;;;;;;;14.67;14.67;;;;;;;;5091684;27;51953;-63
2022/09/02 14:13:00;;;;;;;;;14.00;12.33;;;;;;;;5072799;27;50978;-63
2022/09/02 14:15:27;;;;;;;;;12.67;11.67;;;;;;;;5073240;27;51265;-63
2022/09/02 14:18:11;;;;;;;;;14.00;14.00;;;;;;;;5083456;27;51228;-63
2022/09/02 14:20:37;;;;;;;;;14.00;14.00;;;;;;;;5075150;27;52210;-65
2022/09/02 14:23:03;;;;;;;;;11.67;11.67;;;;;;;;5092000;27;51191;-64
2022/09/02 14:25:31;;;;;;;;;13.00;13.00;;;;;;;;5091506;27;51205;-63
2022/09/02 14:27:57;;;;;;;;;14.00;12.33;;;;;;;;5092812;27;50950;-63
2022/09/02 14:30:34;;;;;;;;;13.67;12.67;;;;;;;;5092670;27;51302;-64